createdAt,value
2022-11-17T00:01:13.855Z,37.90
2022-11-17T00:03:42.496Z,29.90
2022-11-17T00:06:11.046Z,29.00
2022-11-17T00:08:39.809Z,34.20
2022-11-17T00:11:08.839Z,29.20
2022-11-17T00:13:55.485Z,26.60
2022-11-17T00:16:24.125Z,33.50
2022-11-17T00:19:10.996Z,22.70
2022-11-17T00:21:39.754Z,29.00
2022-11-17T00:24:08.469Z,28.20
2022-11-17T00:27:00.247Z,33.80
2022-11-17T00:29:32.728Z,34.40
2022-11-17T00:34:48.140Z,26.00
2022-11-17T00:37:17.302Z,23.50
2022-11-17T00:39:45.922Z,36.00
2022-11-17T00:42:14.604Z,19.00
2022-11-17T00:44:43.415Z,31.40
2022-11-17T00:47:12.076Z,26.40
2022-11-17T00:49:40.769Z,32.90
2022-11-17T00:52:10.106Z,32.80
2022-11-17T00:54:38.629Z,37.20
2022-11-17T00:57:07.245Z,37.20
2022-11-17T00:59:35.773Z,35.50
2022-11-17T01:02:04.279Z,37.10
2022-11-17T01:04:32.852Z,38.30
2022-11-17T01:07:01.481Z,35.60
2022-11-17T01:09:30.172Z,31.90
2022-11-17T01:12:00.674Z,37.10
2022-11-17T01:14:33.192Z,37.80
2022-11-17T01:19:30.268Z,37.80
2022-11-17T01:21:58.944Z,38.70
2022-11-17T01:24:27.738Z,40.00
2022-11-17T01:26:56.430Z,43.00
2022-11-17T01:29:24.933Z,38.80
2022-11-17T01:31:53.658Z,41.60
2022-11-17T01:34:22.289Z,39.70
2022-11-17T01:40:14.250Z,39.80
2022-11-17T01:42:42.787Z,38.40
2022-11-17T01:45:23.398Z,39.40
2022-11-17T01:47:58.688Z,35.80
2022-11-17T01:50:36.641Z,36.80
2022-11-17T01:53:11.688Z,38.30
2022-11-17T01:55:52.437Z,38.70
2022-11-17T01:58:33.703Z,37.90
2022-11-17T02:01:02.649Z,38.00
2022-11-17T02:03:34.847Z,37.20
2022-11-17T02:06:10.746Z,39.30
2022-11-17T02:08:43.404Z,25.80
2022-11-17T02:11:17.536Z,32.30
2022-11-17T02:13:46.679Z,23.70
2022-11-17T02:16:17.362Z,26.00
2022-11-17T02:18:48.827Z,27.10
2022-11-17T02:21:50.155Z,20.00
2022-11-17T02:24:58.994Z,17.00
2022-11-17T02:27:50.567Z,25.70
2022-11-17T02:30:22.889Z,18.40
2022-11-17T02:33:36.827Z,37.10
2022-11-17T02:36:24.276Z,26.80
2022-11-17T02:39:23.789Z,23.80
2022-11-17T02:42:09.017Z,26.90
2022-11-17T02:44:58.802Z,34.10
2022-11-17T02:47:34.592Z,27.00
2022-11-17T02:50:10.557Z,39.10
2022-11-17T02:52:39.239Z,29.60
2022-11-17T02:55:10.994Z,38.80
2022-11-17T02:57:41.549Z,34.70
2022-11-17T03:00:18.439Z,27.10
2022-11-17T03:02:54.348Z,37.50
2022-11-17T03:05:48.325Z,34.80
2022-11-17T03:08:44.213Z,30.40
2022-11-17T03:11:14.113Z,35.10
2022-11-17T03:14:30.429Z,27.60
2022-11-17T03:17:14.227Z,24.80
2022-11-17T03:19:55.920Z,20.60
2022-11-17T03:22:49.257Z,29.80
2022-11-17T03:25:23.371Z,30.10
2022-11-17T03:27:59.304Z,30.00
2022-11-17T03:30:33.292Z,23.60
2022-11-17T03:33:15.716Z,19.50
2022-11-17T03:36:21.553Z,22.40
2022-11-17T03:39:04.074Z,20.90
2022-11-17T03:41:37.625Z,24.30
2022-11-17T03:44:07.228Z,16.00
2022-11-17T03:46:39.463Z,21.40
2022-11-17T03:49:40.187Z,20.20
2022-11-17T03:52:11.788Z,21.80
2022-11-17T03:54:41.147Z,25.50
2022-11-17T03:57:47.981Z,27.90
2022-11-17T04:00:20.042Z,24.00
2022-11-17T04:02:55.910Z,28.90
2022-11-17T04:05:24.774Z,26.00
2022-11-17T04:07:53.427Z,24.20
2022-11-17T04:10:26.100Z,27.50
2022-11-17T04:13:13.576Z,31.80
2022-11-17T04:15:57.116Z,24.00
2022-11-17T04:18:27.387Z,28.80
2022-11-17T04:21:00.586Z,35.30
2022-11-17T04:23:29.416Z,36.10
2022-11-17T04:26:16.237Z,38.90
2022-11-17T04:28:49.329Z,38.20
2022-11-17T04:31:30.268Z,40.20
2022-11-17T04:34:01.984Z,37.50
2022-11-17T04:36:45.552Z,40.50
2022-11-17T04:39:39.143Z,40.90
2022-11-17T04:44:39.477Z,37.80
2022-11-17T04:47:08.210Z,36.20
2022-11-17T04:49:36.981Z,39.60
2022-11-17T04:52:06.351Z,38.80
2022-11-17T04:54:35.665Z,36.40
2022-11-17T04:57:04.674Z,37.20
2022-11-17T04:59:33.685Z,38.40
2022-11-17T05:02:05.916Z,40.60
2022-11-17T05:04:54.159Z,36.90
2022-11-17T05:07:24.541Z,36.50
2022-11-17T05:09:53.382Z,36.40
2022-11-17T05:12:40.338Z,37.60
2022-11-17T05:15:09.508Z,35.90
2022-11-17T05:17:38.348Z,35.10
2022-11-17T05:20:07.828Z,35.20
2022-11-17T05:23:35.427Z,35.10
2022-11-17T05:26:04.735Z,34.00
2022-11-17T05:28:40.457Z,33.80
2022-11-17T05:31:36.096Z,35.40
2022-11-17T05:34:13.241Z,34.80
2022-11-17T05:36:42.839Z,33.40
2022-11-17T05:39:11.650Z,22.40
2022-11-17T05:41:40.441Z,29.40
2022-11-17T05:44:09.152Z,27.60
2022-11-17T05:50:24.899Z,29.20
2022-11-17T05:52:55.091Z,30.90
2022-11-17T05:55:24.711Z,29.60
2022-11-17T05:57:55.490Z,32.80
2022-11-17T06:00:25.098Z,29.90
2022-11-17T06:03:05.338Z,30.80
2022-11-17T06:05:34.702Z,26.80
2022-11-17T06:08:03.717Z,28.50
2022-11-17T06:10:34.645Z,27.10
2022-11-17T06:13:03.470Z,31.10
2022-11-17T06:15:32.572Z,27.90
2022-11-17T06:18:18.102Z,33.20
2022-11-17T06:20:52.375Z,33.10
2022-11-17T06:23:26.897Z,34.80
2022-11-17T06:25:57.743Z,25.80
2022-11-17T06:28:28.281Z,28.40
2022-11-17T06:30:57.975Z,30.20
2022-11-17T06:33:31.526Z,21.30
2022-11-17T06:36:02.984Z,23.00
2022-11-17T06:38:33.960Z,20.90
2022-11-17T06:41:10.561Z,20.70
2022-11-17T06:43:41.312Z,21.20
2022-11-17T06:46:10.664Z,20.10
2022-11-17T06:48:39.471Z,22.60
2022-11-17T06:51:08.566Z,20.30
2022-11-17T06:53:37.590Z,21.90
2022-11-17T06:56:11.745Z,17.40
2022-11-17T06:58:41.930Z,14.60
2022-11-17T07:01:15.198Z,18.60
2022-11-17T07:03:44.140Z,20.60
2022-11-17T07:06:14.094Z,22.60
2022-11-17T07:08:43.160Z,18.90
2022-11-17T07:11:16.824Z,19.20
2022-11-17T07:13:45.948Z,16.70
2022-11-17T07:30:18.210Z,21.00
2022-11-17T07:32:48.447Z,19.40
2022-11-17T07:35:19.897Z,20.00
2022-11-17T07:37:47.380Z,17.00
2022-11-17T07:40:15.768Z,15.00
2022-11-17T07:42:49.656Z,15.10
2022-11-17T07:45:19.166Z,14.10
2022-11-17T07:47:59.004Z,14.30
2022-11-17T07:50:29.093Z,15.10
2022-11-17T08:04:06.107Z,18.00
2022-11-17T08:06:33.648Z,15.00
2022-11-17T08:09:01.449Z,13.40
2022-11-17T08:11:28.870Z,15.10
2022-11-17T08:13:56.964Z,16.80
2022-11-17T08:16:30.173Z,16.20
2022-11-17T08:18:58.451Z,14.90
2022-11-17T08:21:25.967Z,18.10
2022-11-17T08:23:54.854Z,15.00
2022-11-17T08:26:26.004Z,15.20
2022-11-17T08:28:58.440Z,19.30
2022-11-17T08:31:26.651Z,16.50
2022-11-17T08:33:54.378Z,16.50
2022-11-17T08:36:22.307Z,14.70
2022-11-17T08:50:23.677Z,18.60
2022-11-17T08:53:00.288Z,16.10
2022-11-17T08:55:29.695Z,18.50
2022-11-17T08:57:59.149Z,17.90
2022-11-17T09:11:24.513Z,18.90
2022-11-17T09:13:54.027Z,18.70
2022-11-17T09:16:24.763Z,20.80
2022-11-17T09:18:58.629Z,18.00
2022-11-17T09:21:29.198Z,15.30
2022-11-17T09:23:59.160Z,13.10
2022-11-17T09:26:28.297Z,14.90
2022-11-17T09:31:50.316Z,14.40
2022-11-17T09:34:19.562Z,11.20
2022-11-17T09:36:51.875Z,11.90
2022-11-17T09:39:57.027Z,16.40
2022-11-17T09:42:26.279Z,14.20
2022-11-17T09:45:18.738Z,13.00
2022-11-17T10:03:32.566Z,12.60
2022-11-17T10:06:27.477Z,11.70
2022-11-17T10:12:58.057Z,12.10
2022-11-17T10:16:27.106Z,11.70
2022-11-17T10:23:06.602Z,14.80
2022-11-17T10:29:10.067Z,12.20
2022-11-17T10:35:45.078Z,13.10
2022-11-17T10:38:56.542Z,12.70
2022-11-17T10:42:26.148Z,9.80
2022-11-17T10:53:09.981Z,13.20
2022-11-17T10:56:46.989Z,12.70
2022-11-17T10:59:30.755Z,11.10
2022-11-17T11:02:34.794Z,12.00
2022-11-17T11:05:20.984Z,18.30
2022-11-17T11:08:25.164Z,9.80
2022-11-17T11:11:45.928Z,9.70
2022-11-17T11:14:41.428Z,13.40
2022-11-17T11:17:15.708Z,13.50
2022-11-17T11:19:51.936Z,13.50
2022-11-17T11:22:41.806Z,9.80
2022-11-17T11:25:51.467Z,12.20
2022-11-17T11:28:44.421Z,10.00
2022-11-17T11:31:54.047Z,9.00
2022-11-17T11:34:47.921Z,11.30
2022-11-17T11:37:16.096Z,9.70
2022-11-17T11:40:01.628Z,11.30
2022-11-17T11:42:56.224Z,10.80
2022-11-17T11:45:44.371Z,5.70
2022-11-17T11:48:27.655Z,9.00
2022-11-17T11:51:25.194Z,10.10
2022-11-17T11:54:02.757Z,10.00
2022-11-17T11:56:42.249Z,9.80
2022-11-17T11:59:22.064Z,9.70
2022-11-17T12:02:17.945Z,7.70
2022-11-17T12:05:03.410Z,11.40
2022-11-17T12:08:05.993Z,8.30
2022-11-17T12:11:31.571Z,9.70
2022-11-17T12:14:01.316Z,9.70
2022-11-17T12:16:36.508Z,8.90
2022-11-17T12:19:57.180Z,6.90
2022-11-17T12:22:33.308Z,10.60
2022-11-17T12:25:18.688Z,7.80
2022-11-17T12:27:52.790Z,6.30
2022-11-17T12:30:38.497Z,6.00
2022-11-17T12:33:08.147Z,5.50
2022-11-17T12:35:38.510Z,6.30
2022-11-17T12:38:16.158Z,4.70
2022-11-17T12:40:49.815Z,5.80
2022-11-17T12:43:27.580Z,4.60
2022-11-17T12:45:57.949Z,3.80
2022-11-17T12:48:35.337Z,2.90
2022-11-17T12:51:06.797Z,4.00
2022-11-17T12:53:42.786Z,4.70
2022-11-17T12:56:31.619Z,3.50
2022-11-17T13:02:20.459Z,3.70
2022-11-17T13:05:15.961Z,3.70
2022-11-17T13:07:44.856Z,2.80
2022-11-17T13:10:43.122Z,2.40
2022-11-17T13:13:24.946Z,2.70
2022-11-17T13:16:00.796Z,2.90
2022-11-17T13:18:39.127Z,3.10
2022-11-17T13:21:26.338Z,3.90
2022-11-17T13:23:55.796Z,3.40
2022-11-17T13:26:31.654Z,4.00
2022-11-17T13:29:13.746Z,3.70
2022-11-17T13:31:42.561Z,3.10
2022-11-17T13:34:14.234Z,4.10
2022-11-17T13:36:54.332Z,4.70
2022-11-17T13:39:27.323Z,2.90
2022-11-17T13:42:01.696Z,4.40
2022-11-17T13:44:32.908Z,4.70
2022-11-17T13:47:27.429Z,5.50
2022-11-17T13:49:56.138Z,4.70
2022-11-17T13:52:41.962Z,4.30
2022-11-17T13:55:21.784Z,4.90
2022-11-17T13:58:26.698Z,5.50
2022-11-17T14:00:58.843Z,6.40
2022-11-17T14:03:40.581Z,4.00
2022-11-17T14:06:13.352Z,7.00
2022-11-17T14:11:13.167Z,8.00
2022-11-17T14:13:54.126Z,7.30
2022-11-17T14:16:37.576Z,6.30
2022-11-17T14:19:32.366Z,6.30
2022-11-17T14:22:27.697Z,5.20
2022-11-17T14:25:00.023Z,6.00
2022-11-17T14:27:37.668Z,6.00
2022-11-17T14:30:07.450Z,5.30
2022-11-17T14:32:36.965Z,3.90
2022-11-17T14:35:06.399Z,4.30
2022-11-17T14:37:35.323Z,5.00
2022-11-17T14:40:06.130Z,4.00
2022-11-17T14:42:36.430Z,3.60
2022-11-17T14:45:05.851Z,3.80
2022-11-17T14:47:35.282Z,4.40
2022-11-17T14:50:04.822Z,3.90
2022-11-17T14:52:36.659Z,4.30
2022-11-17T14:55:06.629Z,3.60
2022-11-17T14:57:36.055Z,2.80
2022-11-17T15:00:08.657Z,3.20
2022-11-17T15:02:38.638Z,4.50
2022-11-17T15:05:08.075Z,3.60
2022-11-17T15:07:37.754Z,4.60
2022-11-17T15:10:10.296Z,4.10
2022-11-17T15:15:08.042Z,3.10
2022-11-17T15:17:37.430Z,5.40
2022-11-17T15:20:07.357Z,4.00
2022-11-17T15:36:26.128Z,3.20
2022-11-17T15:38:54.850Z,3.60
2022-11-17T15:41:23.670Z,3.80
2022-11-17T15:43:54.893Z,3.40
2022-11-17T15:46:23.682Z,3.20
2022-11-17T15:48:55.535Z,2.90
2022-11-17T15:51:27.291Z,3.30
2022-11-17T15:54:00.991Z,3.20
2022-11-17T15:56:37.492Z,4.20
2022-11-17T15:59:06.713Z,3.00
2022-11-17T16:01:38.682Z,2.70
2022-11-17T16:04:10.338Z,1.80
2022-11-17T16:06:44.352Z,2.40
2022-11-17T16:09:14.075Z,1.40
2022-11-17T16:11:42.857Z,2.40
2022-11-17T16:14:11.880Z,2.40
2022-11-17T16:16:41.957Z,3.00
2022-11-17T16:19:10.897Z,4.00
2022-11-17T16:21:39.785Z,4.00
2022-11-17T16:24:11.936Z,3.80
2022-11-17T16:29:46.904Z,3.40
2022-11-17T16:32:18.039Z,3.10
2022-11-17T16:34:50.119Z,3.00
2022-11-17T16:37:19.955Z,3.30
2022-11-17T16:39:51.793Z,3.50
2022-11-17T16:42:20.631Z,3.10
2022-11-17T16:44:49.495Z,3.40
2022-11-17T16:47:18.381Z,3.00
2022-11-17T16:49:51.642Z,3.00
2022-11-17T16:52:20.995Z,3.50
2022-11-17T16:54:50.042Z,3.70
2022-11-17T16:57:18.788Z,3.10
2022-11-17T16:59:47.752Z,2.70
2022-11-17T17:02:18.133Z,2.70
2022-11-17T17:05:42.183Z,2.90
2022-11-17T17:08:13.251Z,3.20
2022-11-17T17:11:44.215Z,4.60
2022-11-17T17:15:07.100Z,3.50
2022-11-17T17:38:43.607Z,5.40
2022-11-17T17:41:17.668Z,5.20
2022-11-17T17:43:54.480Z,3.80
2022-11-17T17:46:23.315Z,3.30
2022-11-17T17:48:52.205Z,3.20
2022-11-17T17:51:26.148Z,3.50
2022-11-17T17:53:58.320Z,3.30
2022-11-17T17:56:27.509Z,3.50
2022-11-17T17:58:57.602Z,4.20
2022-11-17T18:01:35.563Z,3.70
2022-11-17T18:04:10.083Z,3.20
2022-11-17T18:06:48.568Z,3.10
2022-11-17T18:09:22.017Z,4.30
2022-11-17T18:11:55.422Z,3.90
2022-11-17T18:14:25.090Z,3.70
2022-11-17T18:16:54.526Z,3.50
2022-11-17T18:19:25.890Z,4.00
2022-11-17T18:21:59.373Z,3.60
2022-11-17T18:24:28.543Z,3.40
2022-11-17T18:26:57.434Z,4.20
2022-11-17T18:29:26.084Z,3.40
2022-11-17T18:31:54.844Z,3.70
2022-11-17T18:34:25.952Z,3.30
2022-11-17T18:36:55.926Z,3.30
2022-11-17T18:39:25.072Z,2.90
2022-11-17T18:41:57.453Z,5.00
2022-11-17T18:44:32.057Z,4.30
2022-11-17T18:47:03.067Z,4.60
2022-11-17T18:49:34.651Z,4.40
2022-11-17T18:52:03.805Z,4.10
2022-11-17T18:54:32.955Z,4.40
2022-11-17T18:57:05.319Z,3.80
2022-11-17T18:59:36.098Z,4.10
2022-11-17T19:02:10.572Z,3.40
2022-11-17T19:04:39.713Z,3.60
2022-11-17T19:07:12.767Z,4.10
2022-11-17T19:09:41.666Z,4.10
2022-11-17T19:12:11.518Z,4.20
2022-11-17T19:14:40.305Z,4.10
2022-11-17T19:17:09.115Z,4.80
2022-11-17T19:19:37.823Z,6.30
2022-11-17T19:22:06.948Z,5.20
2022-11-17T19:24:35.666Z,5.20
2022-11-17T19:27:04.365Z,5.70
2022-11-17T19:29:33.942Z,5.60
2022-11-17T19:32:02.767Z,7.50
2022-11-17T19:34:40.724Z,5.90
2022-11-17T19:37:16.568Z,5.20
2022-11-17T19:39:45.375Z,5.20
2022-11-17T19:42:14.118Z,5.40
2022-11-17T19:44:42.800Z,5.60
2022-11-17T19:47:11.619Z,7.10
2022-11-17T19:49:42.720Z,5.50
2022-11-17T19:52:11.632Z,5.20
2022-11-17T19:54:42.729Z,6.10
2022-11-17T19:57:13.979Z,9.10
2022-11-17T19:59:47.495Z,7.40
2022-11-17T20:02:16.805Z,7.20
2022-11-17T20:04:45.470Z,6.20
2022-11-17T20:07:14.189Z,6.50
2022-11-17T20:09:43.085Z,3.60
2022-11-17T20:12:11.912Z,3.20
2022-11-17T20:14:40.621Z,5.80
2022-11-17T20:17:09.514Z,6.20
2022-11-17T20:19:39.361Z,6.30
2022-11-17T20:22:08.097Z,6.10
2022-11-17T20:24:36.747Z,5.20
2022-11-17T20:27:05.507Z,6.60
2022-11-17T20:29:34.256Z,7.20
2022-11-17T20:32:03.050Z,7.90
2022-11-17T20:34:31.612Z,7.90
2022-11-17T20:37:00.360Z,5.90
2022-11-17T20:39:28.953Z,5.50
2022-11-17T20:41:57.592Z,6.40
2022-11-17T20:44:26.341Z,6.70
2022-11-17T20:46:56.087Z,7.10
2022-11-17T20:49:25.431Z,4.10
2022-11-17T20:51:54.148Z,7.30
2022-11-17T20:54:22.903Z,7.40
2022-11-17T20:56:51.636Z,8.80
2022-11-17T20:59:22.097Z,4.80
2022-11-17T21:01:51.176Z,6.40
2022-11-17T21:04:20.127Z,7.00
2022-11-17T21:06:48.868Z,7.40
2022-11-17T21:09:18.018Z,7.10
2022-11-17T21:11:59.190Z,6.70
2022-11-17T21:14:28.117Z,7.40
2022-11-17T21:16:58.083Z,7.80
2022-11-17T21:19:28.543Z,7.20
2022-11-17T21:21:57.464Z,7.40
2022-11-17T21:24:27.899Z,5.60
2022-11-17T21:26:57.068Z,6.80
2022-11-17T21:29:26.055Z,7.50
2022-11-17T21:31:54.810Z,7.40
2022-11-17T21:34:23.602Z,7.60
2022-11-17T21:36:53.601Z,6.80
2022-11-17T21:39:25.177Z,6.80
2022-11-17T21:41:53.989Z,7.70
2022-11-17T21:44:22.809Z,6.90
2022-11-17T21:46:52.704Z,7.40
2022-11-17T21:49:21.469Z,7.80
2022-11-17T21:51:50.422Z,5.70
2022-11-17T21:54:19.367Z,7.20
2022-11-17T21:56:48.289Z,7.60
2022-11-17T21:59:17.542Z,7.60
2022-11-17T22:02:03.827Z,8.30
2022-11-17T22:04:32.529Z,7.20
2022-11-17T22:07:01.152Z,8.20
2022-11-17T22:09:30.061Z,6.80
2022-11-17T22:11:58.921Z,7.20
2022-11-17T22:14:27.846Z,8.20
2022-11-17T22:16:56.647Z,8.60
2022-11-17T22:19:29.529Z,6.80
2022-11-17T22:21:58.775Z,7.80
2022-11-17T22:24:27.586Z,8.00
2022-11-17T22:26:56.383Z,8.10
2022-11-17T22:29:25.141Z,7.50
2022-11-17T22:31:53.872Z,7.00
2022-11-17T22:34:23.058Z,6.90
2022-11-17T22:36:51.661Z,7.80
2022-11-17T22:39:20.483Z,7.60
2022-11-17T22:41:49.222Z,8.00
2022-11-17T22:44:17.904Z,7.50
2022-11-17T22:46:46.526Z,8.10
2022-11-17T22:49:15.476Z,7.90
2022-11-17T22:52:03.144Z,7.30
2022-11-17T22:54:32.401Z,6.90
2022-11-17T22:57:02.524Z,5.90
2022-11-17T22:59:33.541Z,5.70
2022-11-17T23:02:02.312Z,7.50
2022-11-17T23:04:31.261Z,7.60
2022-11-17T23:07:00.066Z,8.10
2022-11-17T23:09:29.986Z,7.60
2022-11-17T23:11:58.658Z,7.50
2022-11-17T23:14:27.484Z,7.60
2022-11-17T23:16:56.179Z,7.40
2022-11-17T23:19:27.367Z,7.80
2022-11-17T23:21:56.051Z,7.90
2022-11-17T23:24:24.620Z,8.00
2022-11-17T23:26:53.244Z,7.30
2022-11-17T23:29:21.848Z,7.80
2022-11-17T23:31:50.529Z,7.90
2022-11-17T23:34:19.299Z,8.70
2022-11-17T23:36:49.485Z,7.60
2022-11-17T23:39:18.503Z,8.70
